Terminal Aerodrome Forecast
Issued by NWS Greer, SC

Home | Current Version | Previous Version | Text Only | Print | Product List | Glossary On
Versions: 1 2 3 4 5 6 7 8 9 10 11 12 13 14 15 16 17 18 19 20 21 22 23 24 25
721
FTUS42 KGSP 212156 AAC
TAFGSP
TAF AMD
KGSP 212156Z 2122/2218 05007KT P6SM VCSH OVC004
     FM220000 VRB02KT 5SM BR VCSH OVC003
     FM220400 VRB03KT 1SM BR OVC003 PROB30 2208/2214 2SM TSRA BR
      OVC006CB
     FM221400 15006KT 2SM -SHRA BR VCTS OVC005CB
     FM221700 20008KT 4SM -SHRA VCTS OVC008CB=

USA.gov is the U.S. government's official web portal to all federal, state and local government web resources and services.